Time;durP1;ratioP1;P1;durP2;ratioP2;P2;SDS_P1;SDS_P2;PMS_P1;PMS_P2;Temp;Humidity;BMP_temperature;BMP_pressure;BME280_temperature;BME280_humidity;BME280_pressure;Samples;Min_cycle;Max_cycle;Signal;HPM_P1;HPM_P2
2022/10/13 00:01:55;;;;;;;5.65;3.03;;;;;;;;;;5074965;28;20509;-66
2022/10/13 00:04:26;;;;;;;4.50;2.58;;;;;;;;;;5032226;28;20062;-66
2022/10/13 00:06:57;;;;;;;4.80;2.65;;;;;;;;;;5032393;28;20057;-66
2022/10/13 00:09:27;;;;;;;5.68;3.15;;;;;;;;;;4983188;28;20056;-66
2022/10/13 00:11:58;;;;;;;6.60;3.38;;;;;;;;;;5032273;28;20053;-66
2022/10/13 00:14:48;;;;;;;6.68;3.95;;;;;;;;;;4970979;28;20054;-66
2022/10/13 00:17:19;;;;;;;7.80;3.05;;;;;;;;;;4953900;29;20070;-66
2022/10/13 00:19:50;;;;;;;7.63;3.55;;;;;;;;;;4937352;29;20055;-66
2022/10/13 00:22:20;;;;;;;5.65;3.78;;;;;;;;;;4954144;29;20055;-66
2022/10/13 00:24:53;;;;;;;5.28;2.65;;;;;;;;;;4953883;29;20395;-66
2022/10/13 00:27:25;;;;;;;9.55;3.55;;;;;;;;;;4934543;29;20133;-66
2022/10/13 00:29:56;;;;;;;5.78;3.20;;;;;;;;;;4915132;29;20067;-66
2022/10/13 00:32:26;;;;;;;6.88;3.53;;;;;;;;;;4915253;29;20056;-66
2022/10/13 00:34:56;;;;;;;6.15;3.00;;;;;;;;;;4899818;29;20059;-66
2022/10/13 00:37:26;;;;;;;6.78;3.10;;;;;;;;;;4884237;29;20060;-66
2022/10/13 00:39:57;;;;;;;5.90;3.15;;;;;;;;;;4884956;29;20075;-66
2022/10/13 00:42:51;;;;;;;4.75;2.85;;;;;;;;;;4928038;29;20044;-66
2022/10/13 00:45:28;;;;;;;6.15;2.92;;;;;;;;;;4934254;29;20063;-65
2022/10/13 00:48:01;;;;;;;7.50;3.50;;;;;;;;;;4934375;29;20055;-66
2022/10/13 00:50:38;;;;;;;7.45;2.90;;;;;;;;;;4934389;29;20059;-66
2022/10/13 00:53:32;;;;;;;5.88;3.33;;;;;;;;;;4933282;28;20065;-66
2022/10/13 00:56:25;;;;;;;5.60;2.42;;;;;;;;;;4953553;28;20063;-65
2022/10/13 00:58:57;;;;;;;8.10;2.88;;;;;;;;;;4952930;28;20661;-66
2022/10/13 01:01:27;;;;;;;5.50;3.42;;;;;;;;;;4937046;29;20055;-66
2022/10/13 01:03:58;;;;;;;5.90;2.88;;;;;;;;;;4921078;28;20055;-66
2022/10/13 01:06:29;;;;;;;5.50;3.10;;;;;;;;;;4955473;28;20067;-66
2022/10/13 01:09:00;;;;;;;7.32;2.35;;;;;;;;;;4991722;28;20414;-66
2022/10/13 01:11:46;;;;;;;6.50;3.10;;;;;;;;;;4991378;28;20189;-67
2022/10/13 01:14:45;;;;;;;5.47;2.97;;;;;;;;;;4991675;28;20061;-66
2022/10/13 01:17:53;;;;;;;6.15;2.78;;;;;;;;;;4960902;28;20066;-66
2022/10/13 01:20:50;;;;;;;4.43;2.85;;;;;;;;;;4952726;29;20062;-66
2022/10/13 01:23:38;;;;;;;5.03;2.75;;;;;;;;;;4933499;29;20059;-66
2022/10/13 01:26:29;;;;;;;6.70;3.10;;;;;;;;;;4933721;29;20067;-66
2022/10/13 01:29:26;;;;;;;5.70;2.97;;;;;;;;;;4914320;29;20051;-66
2022/10/13 01:32:12;;;;;;;5.50;2.80;;;;;;;;;;4938578;28;20059;-65
2022/10/13 01:34:51;;;;;;;8.23;4.03;;;;;;;;;;4914318;29;20056;-65
2022/10/13 01:37:24;;;;;;;;;;;;;;;;;;4930138;29;20059;-65
2022/10/13 01:40:11;;;;;;;6.22;2.88;;;;;;;;;;4914116;29;19923;-65
2022/10/13 01:43:00;;;;;;;7.43;2.80;;;;;;;;;;4914282;29;20087;-66
2022/10/13 01:46:00;;;;;;;7.97;2.95;;;;;;;;;;4883048;29;20052;-66
2022/10/13 01:48:32;;;;;;;5.40;2.92;;;;;;;;;;4883092;29;20071;-66
2022/10/13 01:51:05;;;;;;;8.98;3.95;;;;;;;;;;4898746;29;20071;-66
2022/10/13 01:53:37;;;;;;;6.55;3.25;;;;;;;;;;4914175;29;20512;-66
2022/10/13 01:56:07;;;;;;;8.95;3.17;;;;;;;;;;4926167;28;20081;-65
2022/10/13 01:58:43;;;;;;;6.30;3.47;;;;;;;;;;4955301;28;20061;-66
2022/10/13 02:01:26;;;;;;;12.98;3.47;;;;;;;;;;4966937;28;20497;-66
2022/10/13 02:03:58;;;;;;;11.38;3.55;;;;;;;;;;4990652;28;20054;-66
2022/10/13 02:06:50;;;;;;;7.32;3.50;;;;;;;;;;5008063;28;20061;-66
2022/10/13 02:09:39;;;;;;;7.47;3.10;;;;;;;;;;5029815;28;20056;-66
2022/10/13 02:12:20;;;;;;;9.32;3.28;;;;;;;;;;5033984;28;20061;-66
2022/10/13 02:14:54;;;;;;;10.65;3.53;;;;;;;;;;5000655;28;20056;-66
2022/10/13 02:17:26;;;;;;;12.80;2.72;;;;;;;;;;5018823;28;20469;-66
2022/10/13 02:19:57;;;;;;;8.88;3.42;;;;;;;;;;4997699;28;20064;-66
2022/10/13 02:22:32;;;;;;;14.57;3.78;;;;;;;;;;5030061;28;20072;-66
2022/10/13 02:25:05;;;;;;;11.00;3.28;;;;;;;;;;5009585;28;20046;-66
2022/10/13 02:27:35;;;;;;;6.97;3.50;;;;;;;;;;5010077;28;20065;-66
2022/10/13 02:30:05;;;;;;;9.00;3.47;;;;;;;;;;4993560;28;20482;-66
2022/10/13 02:32:36;;;;;;;8.32;3.10;;;;;;;;;;4961459;28;20068;-66
2022/10/13 02:35:07;;;;;;;8.80;3.60;;;;;;;;;;5010160;28;20057;-66
2022/10/13 02:37:36;;;;;;;11.10;3.22;;;;;;;;;;5010051;28;20062;-66
2022/10/13 02:40:10;;;;;;;10.48;2.75;;;;;;;;;;5010322;28;20497;-67
2022/10/13 02:42:41;;;;;;;7.45;2.88;;;;;;;;;;5012746;28;20065;-66
2022/10/13 02:45:11;;;;;;;6.47;3.08;;;;;;;;;;5029893;28;20556;-66
2022/10/13 02:47:41;;;;;;;7.28;2.72;;;;;;;;;;5061272;28;20574;-66
2022/10/13 02:50:11;;;;;;;7.75;2.60;;;;;;;;;;5069785;28;20067;-66
2022/10/13 02:52:41;;;;;;;5.43;2.15;;;;;;;;;;5069772;28;20411;-66
2022/10/13 02:55:11;;;;;;;8.77;2.38;;;;;;;;;;5069630;28;20048;-66
2022/10/13 02:57:43;;;;;;;;;;;;;;;;;;5070118;28;20045;-66
2022/10/13 03:00:14;;;;;;;6.88;2.72;;;;;;;;;;5052579;28;20427;-66
2022/10/13 03:02:44;;;;;;;7.15;2.25;;;;;;;;;;5057420;28;20403;-66
2022/10/13 03:05:14;;;;;;;6.05;3.10;;;;;;;;;;5112290;28;20046;-67
2022/10/13 03:07:44;;;;;;;6.38;3.30;;;;;;;;;;5028064;28;20059;-66
2022/10/13 03:10:15;;;;;;;8.00;3.25;;;;;;;;;;5076517;28;20047;-66
2022/10/13 03:12:45;;;;;;;5.45;2.90;;;;;;;;;;5061155;28;20059;-66
2022/10/13 03:15:15;;;;;;;5.72;3.20;;;;;;;;;;5112374;28;20483;-66
2022/10/13 03:17:47;;;;;;;8.25;3.38;;;;;;;;;;5044188;28;20059;-66
2022/10/13 03:20:17;;;;;;;5.03;3.22;;;;;;;;;;5061354;28;20055;-66
2022/10/13 03:22:47;;;;;;;5.80;3.03;;;;;;;;;;5112169;28;20051;-66
2022/10/13 03:25:17;;;;;;;7.18;2.92;;;;;;;;;;5076230;28;20055;-66
2022/10/13 03:27:47;;;;;;;10.38;3.67;;;;;;;;;;5076817;28;20051;-66
2022/10/13 03:30:18;;;;;;;5.45;2.72;;;;;;;;;;5116115;28;20051;-66
2022/10/13 03:32:47;;;;;;;8.32;3.85;;;;;;;;;;5116269;28;20044;-66
2022/10/13 03:35:17;;;;;;;7.90;3.30;;;;;;;;;;5036167;28;20056;-66
2022/10/13 03:37:47;;;;;;;12.93;4.32;;;;;;;;;;5036274;28;20057;-66
2022/10/13 03:40:17;;;;;;;6.03;3.40;;;;;;;;;;5052918;28;20132;-66
2022/10/13 03:42:48;;;;;;;7.63;3.60;;;;;;;;;;5020012;28;20057;-66
2022/10/13 03:45:17;;;;;;;5.90;3.42;;;;;;;;;;5020039;28;20053;-66
2022/10/13 03:47:47;;;;;;;9.90;3.50;;;;;;;;;;5003077;28;20052;-66
2022/10/13 03:50:18;;;;;;;9.13;3.53;;;;;;;;;;5019658;28;20053;-66
2022/10/13 03:52:48;;;;;;;5.80;3.30;;;;;;;;;;5052861;28;20064;-66
2022/10/13 03:55:18;;;;;;;6.70;3.67;;;;;;;;;;5052589;28;20095;-66
2022/10/13 03:57:48;;;;;;;6.90;3.65;;;;;;;;;;5019473;28;20080;-66
2022/10/13 04:00:18;;;;;;;6.75;3.40;;;;;;;;;;5032322;28;20058;-66
2022/10/13 04:02:49;;;;;;;7.97;3.85;;;;;;;;;;5015886;28;20049;-66
2022/10/13 04:05:20;;;;;;;6.55;3.80;;;;;;;;;;5032301;28;20053;-66
2022/10/13 04:07:49;;;;;;;7.13;3.70;;;;;;;;;;5032709;28;20053;-66
2022/10/13 04:10:21;;;;;;;6.25;3.35;;;;;;;;;;5016163;28;20061;-66
2022/10/13 04:12:52;;;;;;;6.38;3.42;;;;;;;;;;5031137;28;20053;-66
2022/10/13 04:15:22;;;;;;;6.85;4.13;;;;;;;;;;5052219;28;20064;-66
2022/10/13 04:17:52;;;;;;;8.52;3.80;;;;;;;;;;5052352;28;20057;-66
2022/10/13 04:20:22;;;;;;;6.50;3.72;;;;;;;;;;5035379;28;20049;-66
2022/10/13 04:22:53;;;;;;;5.93;3.45;;;;;;;;;;5018990;28;20068;-66
2022/10/13 04:25:24;;;;;;;6.00;3.30;;;;;;;;;;5052057;28;20057;-66
2022/10/13 04:27:54;;;;;;;7.78;4.03;;;;;;;;;;5003294;28;20049;-66
2022/10/13 04:30:24;;;;;;;5.63;3.67;;;;;;;;;;5035714;28;20061;-66
2022/10/13 04:32:54;;;;;;;6.85;3.85;;;;;;;;;;5012527;28;20061;-66
2022/10/13 04:35:24;;;;;;;11.52;3.50;;;;;;;;;;5012362;28;20054;-66
2022/10/13 04:37:56;;;;;;;12.60;4.20;;;;;;;;;;5031521;28;20067;-66
2022/10/13 04:40:27;;;;;;;8.65;3.38;;;;;;;;;;5051458;28;20158;-66
2022/10/13 04:42:57;;;;;;;7.82;3.83;;;;;;;;;;5051605;28;20060;-66
2022/10/13 04:45:27;;;;;;;7.13;3.63;;;;;;;;;;5011845;28;20046;-66
2022/10/13 04:47:57;;;;;;;7.00;3.72;;;;;;;;;;4979377;28;20065;-66
2022/10/13 04:50:27;;;;;;;6.47;3.60;;;;;;;;;;4998653;28;20057;-66
2022/10/13 04:53:00;;;;;;;8.45;3.80;;;;;;;;;;5031595;28;20080;-66
2022/10/13 04:55:31;;;;;;;10.65;3.65;;;;;;;;;;4998902;28;20061;-66
2022/10/13 04:58:01;;;;;;;13.02;3.55;;;;;;;;;;5031868;28;20533;-66
2022/10/13 05:00:31;;;;;;;8.85;3.40;;;;;;;;;;5031564;28;20080;-66
2022/10/13 05:03:01;;;;;;;8.93;3.35;;;;;;;;;;5014670;28;20050;-66
2022/10/13 05:05:34;;;;;;;10.73;3.47;;;;;;;;;;5015039;28;20066;-66
2022/10/13 05:08:05;;;;;;;6.30;3.65;;;;;;;;;;5031375;28;20146;-66
2022/10/13 05:10:35;;;;;;;8.85;2.65;;;;;;;;;;5052995;28;20459;-66
2022/10/13 05:13:05;;;;;;;9.90;3.58;;;;;;;;;;5034323;28;20485;-66
2022/10/13 05:15:38;;;;;;;6.13;3.63;;;;;;;;;;5034452;28;20157;-66
2022/10/13 05:18:09;;;;;;;6.50;4.18;;;;;;;;;;5003126;28;20725;-66
2022/10/13 05:20:39;;;;;;;5.78;3.42;;;;;;;;;;5051046;28;20048;-66
2022/10/13 05:23:09;;;;;;;8.95;2.92;;;;;;;;;;5034607;28;20527;-66
2022/10/13 05:25:39;;;;;;;7.28;3.53;;;;;;;;;;5010864;28;20042;-66
2022/10/13 05:28:13;;;;;;;9.95;3.30;;;;;;;;;;4995358;28;20053;-66
2022/10/13 05:30:44;;;;;;;5.93;3.33;;;;;;;;;;5011042;28;20530;-66
2022/10/13 05:33:14;;;;;;;6.55;3.40;;;;;;;;;;5011189;28;20045;-66
2022/10/13 05:35:44;;;;;;;9.85;3.45;;;;;;;;;;5011193;28;20098;-66
2022/10/13 05:38:14;;;;;;;7.07;3.60;;;;;;;;;;5010675;28;20517;-66
2022/10/13 05:40:44;;;;;;;6.28;3.60;;;;;;;;;;5010934;28;20057;-66
2022/10/13 05:43:15;;;;;;;6.25;3.20;;;;;;;;;;5010946;28;20556;-66
2022/10/13 05:45:45;;;;;;;11.73;3.05;;;;;;;;;;5010993;28;20423;-66
2022/10/13 05:48:15;;;;;;;9.10;3.72;;;;;;;;;;5010770;28;20149;-66
2022/10/13 05:50:45;;;;;;;7.28;3.58;;;;;;;;;;5020173;28;20053;-66
2022/10/13 05:53:15;;;;;;;9.65;3.28;;;;;;;;;;5030592;28;20567;-66
2022/10/13 05:55:45;;;;;;;6.75;3.65;;;;;;;;;;5030450;28;20061;-66
2022/10/13 05:58:16;;;;;;;8.52;4.07;;;;;;;;;;5030485;28;20060;-66
2022/10/13 06:00:46;;;;;;;6.72;3.33;;;;;;;;;;5030454;28;20064;-66
2022/10/13 06:03:19;;;;;;;6.70;3.42;;;;;;;;;;5050002;28;20063;-66
2022/10/13 06:05:50;;;;;;;7.03;3.47;;;;;;;;;;5070024;28;20104;-66
2022/10/13 06:08:20;;;;;;;7.35;4.10;;;;;;;;;;5070164;28;20044;-66
2022/10/13 06:10:51;;;;;;;6.13;3.55;;;;;;;;;;5036709;28;20074;-66
2022/10/13 06:13:23;;;;;;;6.15;3.75;;;;;;;;;;5037167;28;20052;-66
2022/10/13 06:15:53;;;;;;;5.30;3.15;;;;;;;;;;5070215;28;20059;-66
2022/10/13 06:18:24;;;;;;;5.88;3.30;;;;;;;;;;5050724;28;20534;-66
2022/10/13 06:20:54;;;;;;;4.95;3.08;;;;;;;;;;5061682;28;20082;-66
2022/10/13 06:23:23;;;;;;;11.93;3.50;;;;;;;;;;5112805;28;20106;-66
2022/10/13 06:25:53;;;;;;;5.45;3.25;;;;;;;;;;5060370;28;20047;-66
2022/10/13 06:28:24;;;;;;;6.72;2.95;;;;;;;;;;5059865;28;20411;-66
2022/10/13 06:30:55;;;;;;;6.32;3.60;;;;;;;;;;5069779;28;20059;-66
2022/10/13 06:33:26;;;;;;;6.47;3.72;;;;;;;;;;5036987;28;20052;-66
2022/10/13 06:35:56;;;;;;;5.65;3.60;;;;;;;;;;5036327;28;20523;-66
2022/10/13 06:38:26;;;;;;;6.72;2.90;;;;;;;;;;5049621;28;20405;-66
2022/10/13 06:41:00;;;;;;;8.18;3.38;;;;;;;;;;5050002;28;20057;-66
2022/10/13 06:43:33;;;;;;;6.20;3.33;;;;;;;;;;5049639;28;20056;-67
2022/10/13 06:46:11;;;;;;;8.98;3.42;;;;;;;;;;5029811;28;20128;-66
2022/10/13 06:48:41;;;;;;;8.27;3.47;;;;;;;;;;5029735;28;20084;-66
2022/10/13 06:51:12;;;;;;;7.03;3.25;;;;;;;;;;5029826;28;20061;-66
2022/10/13 06:53:42;;;;;;;11.27;3.55;;;;;;;;;;5030035;28;20057;-66
2022/10/13 06:56:12;;;;;;;5.80;3.55;;;;;;;;;;5009745;28;20054;-66
2022/10/13 06:58:41;;;;;;;5.57;3.38;;;;;;;;;;5009765;28;20061;-67
2022/10/13 07:01:12;;;;;;;5.85;3.42;;;;;;;;;;4980250;28;20053;-66
2022/10/13 07:03:42;;;;;;;7.45;3.40;;;;;;;;;;5032802;28;20053;-66
2022/10/13 07:06:12;;;;;;;5.00;3.05;;;;;;;;;;4984442;28;20053;-66
2022/10/13 07:08:42;;;;;;;7.00;3.17;;;;;;;;;;5033607;28;20076;-66
2022/10/13 07:11:14;;;;;;;6.28;4.43;;;;;;;;;;5001103;28;20057;-66
2022/10/13 07:13:49;;;;;;;5.93;3.70;;;;;;;;;;5033324;28;20065;-66
2022/10/13 07:16:20;;;;;;;6.57;3.53;;;;;;;;;;5033368;28;20061;-66
2022/10/13 07:18:50;;;;;;;6.32;3.05;;;;;;;;;;5033364;28;20433;-66
2022/10/13 07:21:20;;;;;;;6.63;3.55;;;;;;;;;;5033344;28;20053;-66
2022/10/13 07:23:50;;;;;;;9.32;3.60;;;;;;;;;;5053812;28;20052;-66
2022/10/13 07:26:21;;;;;;;6.85;3.58;;;;;;;;;;5033029;28;20068;-66
2022/10/13 07:28:52;;;;;;;7.47;3.85;;;;;;;;;;5033570;28;20065;-66
2022/10/13 07:31:23;;;;;;;7.72;3.97;;;;;;;;;;5033022;28;20057;-66
2022/10/13 07:33:53;;;;;;;6.25;3.72;;;;;;;;;;5053975;28;20060;-66
2022/10/13 07:36:28;;;;;;;8.18;3.60;;;;;;;;;;5039643;28;20059;-66
2022/10/13 07:39:00;;;;;;;8.45;3.78;;;;;;;;;;5052707;28;20496;-67
2022/10/13 07:41:30;;;;;;;5.95;3.53;;;;;;;;;;5052884;28;20048;-66
2022/10/13 07:44:00;;;;;;;6.30;3.55;;;;;;;;;;5052674;28;20068;-66
2022/10/13 07:46:32;;;;;;;9.88;4.40;;;;;;;;;;5052779;28;20044;-66
2022/10/13 07:49:02;;;;;;;7.07;3.92;;;;;;;;;;5036103;28;20053;-66
2022/10/13 07:51:32;;;;;;;5.30;3.33;;;;;;;;;;5035980;28;20060;-66
2022/10/13 07:54:03;;;;;;;6.88;3.30;;;;;;;;;;5053011;28;20060;-66
2022/10/13 07:56:35;;;;;;;8.32;3.58;;;;;;;;;;5019558;28;20068;-66
2022/10/13 07:59:05;;;;;;;8.02;3.13;;;;;;;;;;5052551;28;20463;-66
2022/10/13 08:01:36;;;;;;;6.60;3.60;;;;;;;;;;5052648;28;20045;-66
2022/10/13 08:04:06;;;;;;;5.78;3.35;;;;;;;;;;5064010;28;20056;-66
2022/10/13 08:06:37;;;;;;;6.45;3.20;;;;;;;;;;5012081;28;20050;-66
2022/10/13 08:09:12;;;;;;;7.30;3.92;;;;;;;;;;4977234;28;20055;-66
2022/10/13 08:11:42;;;;;;;5.97;3.10;;;;;;;;;;4992836;28;20402;-66
2022/10/13 08:14:12;;;;;;;7.15;3.47;;;;;;;;;;4992277;28;20553;-66
2022/10/13 08:16:44;;;;;;;8.93;3.20;;;;;;;;;;4983275;28;20054;-65
2022/10/13 08:19:20;;;;;;;7.78;3.70;;;;;;;;;;5032181;28;20057;-66
2022/10/13 08:21:52;;;;;;;7.72;3.72;;;;;;;;;;4999514;28;20045;-66
2022/10/13 08:24:27;;;;;;;9.35;3.45;;;;;;;;;;4992516;28;20058;-66
2022/10/13 08:26:57;;;;;;;10.60;3.83;;;;;;;;;;4992861;28;20054;-65
2022/10/13 08:29:27;;;;;;;7.03;4.07;;;;;;;;;;4992584;28;20074;-66
2022/10/13 08:31:57;;;;;;;5.70;3.38;;;;;;;;;;4992689;28;20065;-66
2022/10/13 08:34:28;;;;;;;7.85;4.10;;;;;;;;;;5012220;28;20050;-66
2022/10/13 08:36:59;;;;;;;7.70;3.80;;;;;;;;;;5012044;28;20064;-65
2022/10/13 08:39:29;;;;;;;6.65;3.80;;;;;;;;;;4996151;28;20062;-66
2022/10/13 08:42:00;;;;;;;11.48;3.75;;;;;;;;;;4979593;28;20064;-66
2022/10/13 08:44:52;;;;;;;6.43;3.40;;;;;;;;;;5024089;28;20069;-66
2022/10/13 08:47:46;;;;;;;7.35;3.80;;;;;;;;;;4997817;28;20050;-66
2022/10/13 08:50:22;;;;;;;11.45;4.03;;;;;;;;;;5044587;28;20064;-66
2022/10/13 08:53:04;;;;;;;6.72;4.05;;;;;;;;;;4998478;28;20525;-66
2022/10/13 08:55:41;;;;;;;7.88;3.75;;;;;;;;;;5031749;28;20069;-66
2022/10/13 08:58:33;;;;;;;8.90;4.22;;;;;;;;;;5031510;28;20053;-66
2022/10/13 09:01:17;;;;;;;7.30;3.25;;;;;;;;;;5034293;28;20935;-66
2022/10/13 09:03:55;;;;;;;6.55;3.97;;;;;;;;;;5019116;28;20068;-66
2022/10/13 09:06:37;;;;;;;9.32;4.25;;;;;;;;;;5035289;28;20061;-66
2022/10/13 09:09:11;;;;;;;7.75;3.83;;;;;;;;;;5051207;28;20053;-65
2022/10/13 09:11:45;;;;;;;7.88;4.22;;;;;;;;;;5057593;28;20044;-65
2022/10/13 09:14:29;;;;;;;7.88;4.25;;;;;;;;;;5091466;28;20051;-66
2022/10/13 09:17:15;;;;;;;6.85;4.40;;;;;;;;;;5091182;28;20056;-66
2022/10/13 09:20:00;;;;;;;7.55;3.92;;;;;;;;;;5091364;28;20074;-66
2022/10/13 09:22:36;;;;;;;7.60;3.78;;;;;;;;;;5009787;28;20055;-66
2022/10/13 09:25:09;;;;;;;7.28;4.03;;;;;;;;;;5091294;28;20078;-66
2022/10/13 09:27:57;;;;;;;7.55;4.40;;;;;;;;;;5091083;28;20522;-66
2022/10/13 09:30:41;;;;;;;10.55;4.40;;;;;;;;;;5080506;28;20040;-65
2022/10/13 09:33:12;;;;;;;12.00;4.07;;;;;;;;;;5057642;28;20056;-65
2022/10/13 09:35:48;;;;;;;8.98;4.88;;;;;;;;;;5057239;28;20048;-66
2022/10/13 09:38:21;;;;;;;8.75;4.57;;;;;;;;;;5058476;28;20190;-66
2022/10/13 09:41:04;;;;;;;10.88;5.10;;;;;;;;;;5014166;28;20056;-66
2022/10/13 09:43:47;;;;;;;8.40;4.63;;;;;;;;;;5013966;28;20057;-66
2022/10/13 09:46:35;;;;;;;8.32;5.05;;;;;;;;;;5000183;28;20080;-66
2022/10/13 09:49:25;;;;;;;;;;;;;;;;;;5031092;28;20052;-65
2022/10/13 09:52:12;;;;;;;9.38;4.00;;;;;;;;;;5010571;28;19928;-66
2022/10/13 09:54:45;;;;;;;7.78;4.18;;;;;;;;;;5010748;28;20065;-66
2022/10/13 09:57:45;;;;;;;8.27;4.65;;;;;;;;;;5010812;28;20057;-66
2022/10/13 10:00:23;;;;;;;8.60;3.80;;;;;;;;;;4933200;29;20060;-66
2022/10/13 10:02:57;;;;;;;7.57;4.38;;;;;;;;;;4917403;29;20048;-66
2022/10/13 10:05:49;;;;;;;7.82;3.63;;;;;;;;;;4887118;29;20416;-66
2022/10/13 10:08:49;;;;;;;8.55;4.50;;;;;;;;;;4933157;29;20056;-66
2022/10/13 10:11:44;;;;;;;9.13;4.60;;;;;;;;;;4933196;29;20144;-66
2022/10/13 10:14:35;;;;;;;11.77;4.40;;;;;;;;;;4933196;29;20059;-66
2022/10/13 10:17:09;;;;;;;10.80;4.60;;;;;;;;;;4901495;29;20114;-67
2022/10/13 10:19:57;;;;;;;10.13;5.38;;;;;;;;;;4970502;28;20073;-67
2022/10/13 10:22:47;;;;;;;7.75;4.45;;;;;;;;;;4955254;28;20058;-67
2022/10/13 10:25:38;;;;;;;9.80;4.53;;;;;;;;;;4971327;28;20057;-67
2022/10/13 10:28:33;;;;;;;8.63;4.72;;;;;;;;;;4938688;28;20541;-66
2022/10/13 10:31:06;;;;;;;6.47;4.18;;;;;;;;;;5010034;28;20061;-67
2022/10/13 10:34:15;;;;;;;8.57;4.68;;;;;;;;;;4961674;28;20054;-67
2022/10/13 10:37:09;;;;;;;7.30;4.35;;;;;;;;;;5032173;28;20058;-66
2022/10/13 10:39:59;;;;;;;10.52;4.88;;;;;;;;;;5032628;28;20049;-66
2022/10/13 10:42:40;;;;;;;7.97;4.50;;;;;;;;;;5049611;28;20060;-66
2022/10/13 10:45:21;;;;;;;8.88;4.35;;;;;;;;;;5049983;28;20057;-67
2022/10/13 10:48:06;;;;;;;10.82;4.57;;;;;;;;;;5049614;28;20045;-66
2022/10/13 10:50:36;;;;;;;7.30;3.55;;;;;;;;;;5033291;28;20408;-66
2022/10/13 10:53:13;;;;;;;8.38;5.13;;;;;;;;;;5017014;28;20608;-66
2022/10/13 10:56:05;;;;;;;7.50;4.35;;;;;;;;;;5032726;28;20053;-66
2022/10/13 10:59:28;;;;;;;8.63;4.82;;;;;;;;;;5049716;28;20164;-66
2022/10/13 11:02:33;;;;;;;10.77;4.88;;;;;;;;;;4990304;28;20047;-66
2022/10/13 11:05:05;;;;;;;9.00;4.63;;;;;;;;;;4951731;29;20162;-66
2022/10/13 11:07:39;;;;;;;7.18;3.92;;;;;;;;;;4951600;29;20431;-66
2022/10/13 11:10:19;;;;;;;9.07;4.88;;;;;;;;;;4903766;29;20047;-66
2022/10/13 11:12:53;;;;;;;10.20;4.45;;;;;;;;;;4935667;29;20557;-66
2022/10/13 11:15:32;;;;;;;7.10;4.68;;;;;;;;;;4951278;28;20059;-66
2022/10/13 11:18:42;;;;;;;8.93;4.63;;;;;;;;;;4982754;28;20065;-67
2022/10/13 11:21:12;;;;;;;7.78;4.95;;;;;;;;;;5009540;28;20049;-67
2022/10/13 11:23:46;;;;;;;12.55;6.28;;;;;;;;;;5009690;28;20121;-67
2022/10/13 11:26:26;;;;;;;10.57;6.20;;;;;;;;;;4960776;28;20261;-67
2022/10/13 11:28:58;;;;;;;13.68;5.97;;;;;;;;;;4993056;28;20058;-67
2022/10/13 11:31:46;;;;;;;11.45;6.72;;;;;;;;;;4977122;28;20545;-67
2022/10/13 11:34:30;;;;;;;11.05;5.90;;;;;;;;;;4970765;28;20511;-67
2022/10/13 11:37:02;;;;;;;18.13;8.00;;;;;;;;;;5013199;28;20072;-67
2022/10/13 11:39:58;;;;;;;12.73;7.85;;;;;;;;;;4982068;28;20065;-67
2022/10/13 11:42:38;;;;;;;10.43;6.38;;;;;;;;;;5056947;28;20064;-67
2022/10/13 11:45:54;;;;;;;11.43;5.72;;;;;;;;;;5012508;28;20049;-67
2022/10/13 11:48:44;;;;;;;11.13;6.68;;;;;;;;;;4954074;28;20062;-67
2022/10/13 11:51:33;;;;;;;9.82;5.97;;;;;;;;;;4973779;28;20070;-67
2022/10/13 11:54:34;;;;;;;9.80;4.68;;;;;;;;;;4958042;28;20066;-67
2022/10/13 11:57:26;;;;;;;9.82;4.97;;;;;;;;;;4973824;28;20059;-67
2022/10/13 11:59:57;;;;;;;8.10;4.32;;;;;;;;;;4973700;28;20059;-67
2022/10/13 12:02:30;;;;;;;8.05;3.80;;;;;;;;;;4973822;28;20055;-67
2022/10/13 12:05:22;;;;;;;6.60;3.38;;;;;;;;;;4973731;28;20055;-67
2022/10/13 12:07:56;;;;;;;6.13;3.47;;;;;;;;;;4989874;28;20411;-67
2022/10/13 12:10:33;;;;;;;6.65;4.32;;;;;;;;;;4973344;28;20511;-68
2022/10/13 12:13:07;;;;;;;9.88;4.40;;;;;;;;;;4997510;28;20050;-67
2022/10/13 12:15:40;;;;;;;;;;;;;;;;;;5012996;28;20060;-67
2022/10/13 12:18:24;;;;;;;9.98;3.97;;;;;;;;;;5012814;28;19921;-67
2022/10/13 12:20:59;;;;;;;7.68;3.83;;;;;;;;;;5032088;28;20420;-67
2022/10/13 12:23:32;;;;;;;5.82;3.40;;;;;;;;;;5032151;28;20065;-66
2022/10/13 12:26:01;;;;;;;;;;;;;;;;;;5029851;28;20421;-66
2022/10/13 12:28:50;;;;;;;2.72;1.70;;;;;;;;;;4982744;28;19921;-66
2022/10/13 12:31:24;;;;;;;4.53;1.30;;;;;;;;;;5031946;28;20505;-66
2022/10/13 12:33:58;;;;;;;5.63;1.85;;;;;;;;;;4983106;28;20552;-66
2022/10/13 12:36:30;;;;;;;3.25;1.80;;;;;;;;;;5032104;28;20049;-67
2022/10/13 12:39:09;;;;;;;2.22;1.67;;;;;;;;;;5031870;28;20050;-66
2022/10/13 12:41:46;;;;;;;2.70;1.70;;;;;;;;;;4982987;28;20053;-66
2022/10/13 12:44:26;;;;;;;2.85;1.48;;;;;;;;;;5032100;28;20056;-66
2022/10/13 12:47:02;;;;;;;2.65;1.02;;;;;;;;;;5031924;28;20383;-66
2022/10/13 12:49:34;;;;;;;6.55;1.50;;;;;;;;;;5031679;28;20049;-66
2022/10/13 12:52:13;;;;;;;2.50;1.08;;;;;;;;;;4982842;28;20432;-66
2022/10/13 12:54:54;;;;;;;2.35;1.52;;;;;;;;;;5031844;28;20045;-66
2022/10/13 12:57:36;;;;;;;2.20;1.40;;;;;;;;;;4984344;28;20058;-67
2022/10/13 13:00:19;;;;;;;2.10;1.50;;;;;;;;;;5037819;28;20507;-66
2022/10/13 13:03:03;;;;;;;4.07;2.40;;;;;;;;;;5078734;28;20055;-66
2022/10/13 13:05:40;;;;;;;2.80;1.73;;;;;;;;;;5029786;28;20040;-66
2022/10/13 13:08:30;;;;;;;3.17;1.35;;;;;;;;;;5114253;28;20051;-66
2022/10/13 13:11:07;;;;;;;4.07;1.40;;;;;;;;;;5114363;28;20046;-66
2022/10/13 13:13:38;;;;;;;2.50;1.50;;;;;;;;;;5078442;28;20503;-66
2022/10/13 13:16:17;;;;;;;2.90;1.30;;;;;;;;;;5114063;28;20044;-66
2022/10/13 13:18:50;;;;;;;2.95;1.65;;;;;;;;;;5078161;28;20060;-65
2022/10/13 13:21:20;;;;;;;2.95;1.52;;;;;;;;;;5038274;28;20055;-65
2022/10/13 13:23:51;;;;;;;3.45;2.08;;;;;;;;;;5037832;28;20044;-66
2022/10/13 13:26:23;;;;;;;2.95;1.75;;;;;;;;;;5054334;28;20048;-65
2022/10/13 13:28:55;;;;;;;2.17;1.48;;;;;;;;;;5022590;28;20064;-66
2022/10/13 13:31:25;;;;;;;2.53;1.85;;;;;;;;;;5021539;28;20484;-66
2022/10/13 13:33:56;;;;;;;2.40;1.55;;;;;;;;;;5037820;28;20052;-66
2022/10/13 13:36:29;;;;;;;2.08;1.70;;;;;;;;;;5070607;28;20061;-66
2022/10/13 13:38:59;;;;;;;3.47;1.50;;;;;;;;;;4990577;28;20053;-66
2022/10/13 13:41:30;;;;;;;3.58;1.60;;;;;;;;;;5053814;28;20107;-65
2022/10/13 13:44:00;;;;;;;3.17;1.65;;;;;;;;;;5030489;28;20089;-65
2022/10/13 13:46:31;;;;;;;2.60;1.60;;;;;;;;;;4990902;28;20057;-65
2022/10/13 13:49:01;;;;;;;4.70;1.95;;;;;;;;;;4991128;28;20054;-65
2022/10/13 13:51:31;;;;;;;1.92;1.02;;;;;;;;;;4987506;28;20430;-65
2022/10/13 13:54:02;;;;;;;2.30;1.35;;;;;;;;;;4952748;28;20537;-66
2022/10/13 13:56:32;;;;;;;2.60;1.83;;;;;;;;;;4952231;28;20067;-65
2022/10/13 13:59:02;;;;;;;2.70;1.45;;;;;;;;;;4952554;28;20202;-65
2022/10/13 14:01:32;;;;;;;1.92;1.30;;;;;;;;;;4936742;29;20537;-65
2022/10/13 14:04:01;;;;;;;2.33;1.65;;;;;;;;;;4952521;28;20066;-66
2022/10/13 14:06:32;;;;;;;1.48;0.90;;;;;;;;;;4920607;29;20419;-65
2022/10/13 14:09:03;;;;;;;1.75;1.27;;;;;;;;;;4952187;28;20055;-66
2022/10/13 14:11:34;;;;;;;1.83;1.30;;;;;;;;;;4935773;28;20067;-65
2022/10/13 14:14:04;;;;;;;2.53;0.80;;;;;;;;;;4956428;28;20383;-65
2022/10/13 14:16:35;;;;;;;4.32;1.60;;;;;;;;;;4977910;28;20066;-66
2022/10/13 14:19:07;;;;;;;4.10;1.27;;;;;;;;;;4994047;28;20513;-65
2022/10/13 14:21:37;;;;;;;2.17;1.27;;;;;;;;;;5029227;28;20064;-65
2022/10/13 14:24:11;;;;;;;2.08;1.40;;;;;;;;;;5079157;28;20055;-65
2022/10/13 14:26:41;;;;;;;1.85;1.00;;;;;;;;;;5112694;28;20387;-65
2022/10/13 14:29:12;;;;;;;1.60;0.90;;;;;;;;;;5112894;28;20399;-65
2022/10/13 14:31:42;;;;;;;1.88;1.15;;;;;;;;;;5112521;28;20056;-64
2022/10/13 14:34:12;;;;;;;1.60;1.20;;;;;;;;;;5112487;28;20054;-65
2022/10/13 14:36:45;;;;;;;4.18;1.80;;;;;;;;;;5071783;28;20043;-66
2022/10/13 14:39:21;;;;;;;3.17;1.58;;;;;;;;;;5067706;28;20044;-65
2022/10/13 14:41:51;;;;;;;3.38;1.52;;;;;;;;;;5089574;28;20064;-64
2022/10/13 14:44:21;;;;;;;2.20;1.45;;;;;;;;;;5087770;28;20156;-65
2022/10/13 14:46:52;;;;;;;3.35;1.35;;;;;;;;;;5072132;28;20515;-65
2022/10/13 14:49:22;;;;;;;2.22;1.30;;;;;;;;;;5069542;28;20040;-65
2022/10/13 14:51:52;;;;;;;2.40;1.40;;;;;;;;;;5069491;28;20056;-65
2022/10/13 14:54:22;;;;;;;2.88;1.90;;;;;;;;;;5069846;28;20049;-66
2022/10/13 14:56:52;;;;;;;2.22;1.60;;;;;;;;;;5069390;28;20634;-66
2022/10/13 14:59:22;;;;;;;2.78;1.40;;;;;;;;;;5029328;28;20061;-65
2022/10/13 15:01:52;;;;;;;1.95;1.33;;;;;;;;;;4977505;28;20053;-65
2022/10/13 15:04:22;;;;;;;2.20;1.30;;;;;;;;;;4993136;28;20065;-65
2022/10/13 15:06:52;;;;;;;1.65;1.20;;;;;;;;;;4954609;28;20066;-65
2022/10/13 15:09:24;;;;;;;3.20;1.25;;;;;;;;;;4973323;28;20050;-65
2022/10/13 15:12:14;;;;;;;1.55;0.85;;;;;;;;;;4970366;28;20541;-65
2022/10/13 15:14:44;;;;;;;4.30;1.65;;;;;;;;;;4970785;28;20051;-65
2022/10/13 15:17:14;;;;;;;2.88;1.45;;;;;;;;;;4918733;28;20062;-65
2022/10/13 15:19:44;;;;;;;1.67;1.35;;;;;;;;;;4989988;28;20065;-66
2022/10/13 15:22:14;;;;;;;2.00;1.40;;;;;;;;;;4990469;28;20054;-66
2022/10/13 15:24:44;;;;;;;1.58;1.10;;;;;;;;;;4977454;28;20106;-65
2022/10/13 15:27:15;;;;;;;1.63;0.80;;;;;;;;;;4977281;28;20387;-66
2022/10/13 15:29:45;;;;;;;2.05;1.15;;;;;;;;;;4993627;28;20102;-66
2022/10/13 15:32:17;;;;;;;1.70;1.10;;;;;;;;;;4993510;28;20057;-66